sensor_id;sensor_type;location;lat;lon;timestamp;temperature;humidity
5492;DHT22;2768;53.540;10.224;2023-05-20T00:01:05;14.20;1.00
5492;DHT22;2768;53.540;10.224;2023-05-20T00:06:58;14.20;1.00
5492;DHT22;2768;53.540;10.224;2023-05-20T00:12:52;14.00;1.00
5492;DHT22;2768;53.540;10.224;2023-05-20T00:18:47;14.00;1.00
5492;DHT22;2768;53.540;10.224;2023-05-20T00:24:40;14.20;1.00
5492;DHT22;2768;53.540;10.224;2023-05-20T00:30:33;13.70;1.00
5492;DHT22;2768;53.540;10.224;2023-05-20T00:36:28;13.70;1.00
5492;DHT22;2768;53.540;10.224;2023-05-20T00:42:23;13.80;1.00
5492;DHT22;2768;53.540;10.224;2023-05-20T00:48:17;14.00;1.00
5492;DHT22;2768;53.540;10.224;2023-05-20T00:54:13;13.80;1.00
5492;DHT22;2768;53.540;10.224;2023-05-20T01:00:08;14.00;1.00
5492;DHT22;2768;53.540;10.224;2023-05-20T01:06:02;14.00;1.00
5492;DHT22;2768;53.540;10.224;2023-05-20T01:12:00;13.70;1.00
5492;DHT22;2768;53.540;10.224;2023-05-20T01:17:57;13.80;1.00
5492;DHT22;2768;53.540;10.224;2023-05-20T01:23:54;13.60;1.00
5492;DHT22;2768;53.540;10.224;2023-05-20T01:29:49;13.70;1.00
5492;DHT22;2768;53.540;10.224;2023-05-20T01:35:44;13.70;1.00
5492;DHT22;2768;53.540;10.224;2023-05-20T01:41:42;13.60;1.00
5492;DHT22;2768;53.540;10.224;2023-05-20T01:47:35;13.80;1.00
5492;DHT22;2768;53.540;10.224;2023-05-20T01:53:29;13.70;1.00
5492;DHT22;2768;53.540;10.224;2023-05-20T01:59:24;13.60;1.00
5492;DHT22;2768;53.540;10.224;2023-05-20T02:05:17;13.50;1.00
5492;DHT22;2768;53.540;10.224;2023-05-20T02:11:11;13.60;1.00
5492;DHT22;2768;53.540;10.224;2023-05-20T02:17:06;13.60;1.00
5492;DHT22;2768;53.540;10.224;2023-05-20T02:22:59;13.50;1.00
5492;DHT22;2768;53.540;10.224;2023-05-20T02:28:54;13.50;1.00
5492;DHT22;2768;53.540;10.224;2023-05-20T02:34:49;13.10;1.00
5492;DHT22;2768;53.540;10.224;2023-05-20T02:40:43;13.20;1.00
5492;DHT22;2768;53.540;10.224;2023-05-20T02:46:37;13.30;1.00
5492;DHT22;2768;53.540;10.224;2023-05-20T02:52:31;13.40;1.00
5492;DHT22;2768;53.540;10.224;2023-05-20T02:58:25;13.60;1.00
5492;DHT22;2768;53.540;10.224;2023-05-20T03:04:18;13.40;1.00
5492;DHT22;2768;53.540;10.224;2023-05-20T03:10:14;13.30;1.00
5492;DHT22;2768;53.540;10.224;2023-05-20T03:16:08;13.30;1.00
5492;DHT22;2768;53.540;10.224;2023-05-20T03:22:04;13.20;1.00
5492;DHT22;2768;53.540;10.224;2023-05-20T03:27:59;13.30;1.00
5492;DHT22;2768;53.540;10.224;2023-05-20T03:33:53;13.20;1.00
5492;DHT22;2768;53.540;10.224;2023-05-20T03:39:46;13.30;1.00
5492;DHT22;2768;53.540;10.224;2023-05-20T03:45:41;13.10;1.00
5492;DHT22;2768;53.540;10.224;2023-05-20T03:51:34;13.00;1.00
5492;DHT22;2768;53.540;10.224;2023-05-20T03:57:33;13.20;1.00
5492;DHT22;2768;53.540;10.224;2023-05-20T04:03:28;13.20;1.00
5492;DHT22;2768;53.540;10.224;2023-05-20T04:09:22;13.00;1.00
5492;DHT22;2768;53.540;10.224;2023-05-20T04:15:16;13.10;1.00
5492;DHT22;2768;53.540;10.224;2023-05-20T04:21:18;13.00;1.00
5492;DHT22;2768;53.540;10.224;2023-05-20T04:27:12;13.00;1.00
5492;DHT22;2768;53.540;10.224;2023-05-20T04:33:07;13.20;1.00
5492;DHT22;2768;53.540;10.224;2023-05-20T04:39:02;13.10;1.00
5492;DHT22;2768;53.540;10.224;2023-05-20T04:44:56;13.30;1.00
5492;DHT22;2768;53.540;10.224;2023-05-20T04:50:49;13.10;1.00
5492;DHT22;2768;53.540;10.224;2023-05-20T04:56:44;13.40;1.00
5492;DHT22;2768;53.540;10.224;2023-05-20T05:02:38;13.50;1.00
5492;DHT22;2768;53.540;10.224;2023-05-20T05:08:31;13.50;1.00
5492;DHT22;2768;53.540;10.224;2023-05-20T05:14:26;13.60;1.00
5492;DHT22;2768;53.540;10.224;2023-05-20T05:20:20;13.50;1.00
5492;DHT22;2768;53.540;10.224;2023-05-20T05:26:14;13.60;1.00
5492;DHT22;2768;53.540;10.224;2023-05-20T05:32:09;13.50;1.00
5492;DHT22;2768;53.540;10.224;2023-05-20T05:38:03;13.50;1.00
5492;DHT22;2768;53.540;10.224;2023-05-20T05:43:57;13.50;2.20
5492;DHT22;2768;53.540;10.224;2023-05-20T05:49:53;13.50;9.30
5492;DHT22;2768;53.540;10.224;2023-05-20T05:55:46;13.60;9.40
5492;DHT22;2768;53.540;10.224;2023-05-20T06:01:40;13.60;14.60
5492;DHT22;2768;53.540;10.224;2023-05-20T06:07:35;13.60;20.10
5492;DHT22;2768;53.540;10.224;2023-05-20T06:13:28;13.70;19.90
5492;DHT22;2768;53.540;10.224;2023-05-20T06:19:22;13.90;15.60
5492;DHT22;2768;53.540;10.224;2023-05-20T06:25:17;14.10;9.70
5492;DHT22;2768;53.540;10.224;2023-05-20T06:31:10;14.10;9.80
5492;DHT22;2768;53.540;10.224;2023-05-20T06:37:04;14.20;15.20
5492;DHT22;2768;53.540;10.224;2023-05-20T06:42:59;14.30;14.30
5492;DHT22;2768;53.540;10.224;2023-05-20T06:49:16;14.30;16.40
5492;DHT22;2768;53.540;10.224;2023-05-20T06:55:09;14.30;21.40
5492;DHT22;2768;53.540;10.224;2023-05-20T07:01:05;14.60;21.80
5492;DHT22;2768;53.540;10.224;2023-05-20T07:06:59;14.60;17.50
5492;DHT22;2768;53.540;10.224;2023-05-20T07:12:53;14.80;12.80
5492;DHT22;2768;53.540;10.224;2023-05-20T07:18:48;14.90;7.00
5492;DHT22;2768;53.540;10.224;2023-05-20T07:24:42;15.10;2.20
5492;DHT22;2768;53.540;10.224;2023-05-20T07:30:35;15.30;1.20
5492;DHT22;2768;53.540;10.224;2023-05-20T07:36:40;15.50;1.00
5492;DHT22;2768;53.540;10.224;2023-05-20T07:42:34;15.60;1.00
5492;DHT22;2768;53.540;10.224;2023-05-20T07:48:27;15.70;1.00
5492;DHT22;2768;53.540;10.224;2023-05-20T07:54:23;15.90;1.00
5492;DHT22;2768;53.540;10.224;2023-05-20T08:00:17;16.10;1.00
5492;DHT22;2768;53.540;10.224;2023-05-20T08:06:10;16.20;1.00
5492;DHT22;2768;53.540;10.224;2023-05-20T08:12:06;16.30;1.00
5492;DHT22;2768;53.540;10.224;2023-05-20T08:18:00;16.40;1.00
5492;DHT22;2768;53.540;10.224;2023-05-20T08:23:54;16.50;1.00
5492;DHT22;2768;53.540;10.224;2023-05-20T08:29:49;16.50;1.00
5492;DHT22;2768;53.540;10.224;2023-05-20T08:35:43;16.50;1.00
5492;DHT22;2768;53.540;10.224;2023-05-20T08:41:37;16.60;1.00
5492;DHT22;2768;53.540;10.224;2023-05-20T08:47:32;16.70;1.00
5492;DHT22;2768;53.540;10.224;2023-05-20T08:53:25;16.70;1.00
5492;DHT22;2768;53.540;10.224;2023-05-20T08:59:19;16.70;1.00
5492;DHT22;2768;53.540;10.224;2023-05-20T09:05:14;16.60;1.00
5492;DHT22;2768;53.540;10.224;2023-05-20T09:11:09;16.60;1.00
5492;DHT22;2768;53.540;10.224;2023-05-20T09:17:04;16.70;1.00
5492;DHT22;2768;53.540;10.224;2023-05-20T09:23:02;16.80;1.00
5492;DHT22;2768;53.540;10.224;2023-05-20T09:28:55;16.90;1.00
5492;DHT22;2768;53.540;10.224;2023-05-20T09:34:49;16.90;1.00
5492;DHT22;2768;53.540;10.224;2023-05-20T09:40:44;16.80;1.00
5492;DHT22;2768;53.540;10.224;2023-05-20T09:46:39;17.00;1.00
5492;DHT22;2768;53.540;10.224;2023-05-20T09:52:34;17.00;1.00
5492;DHT22;2768;53.540;10.224;2023-05-20T09:58:33;16.90;1.00
5492;DHT22;2768;53.540;10.224;2023-05-20T10:04:29;16.80;1.00
5492;DHT22;2768;53.540;10.224;2023-05-20T10:10:30;17.10;1.00
5492;DHT22;2768;53.540;10.224;2023-05-20T10:16:32;17.70;1.00
5492;DHT22;2768;53.540;10.224;2023-05-20T10:22:28;18.00;1.00
5492;DHT22;2768;53.540;10.224;2023-05-20T10:28:30;18.00;1.00
5492;DHT22;2768;53.540;10.224;2023-05-20T10:34:25;17.90;1.00
5492;DHT22;2768;53.540;10.224;2023-05-20T10:40:19;17.60;1.00
5492;DHT22;2768;53.540;10.224;2023-05-20T10:46:17;17.90;1.00
5492;DHT22;2768;53.540;10.224;2023-05-20T10:52:32;17.80;1.00
5492;DHT22;2768;53.540;10.224;2023-05-20T10:58:25;17.60;1.00
5492;DHT22;2768;53.540;10.224;2023-05-20T11:04:19;17.40;1.00
5492;DHT22;2768;53.540;10.224;2023-05-20T11:10:14;17.40;1.00
5492;DHT22;2768;53.540;10.224;2023-05-20T11:16:07;17.20;1.00
5492;DHT22;2768;53.540;10.224;2023-05-20T11:22:01;17.20;1.00
5492;DHT22;2768;53.540;10.224;2023-05-20T11:27:56;17.00;1.00
5492;DHT22;2768;53.540;10.224;2023-05-20T11:33:49;17.10;1.00
5492;DHT22;2768;53.540;10.224;2023-05-20T11:39:43;17.10;1.00
5492;DHT22;2768;53.540;10.224;2023-05-20T11:45:43;17.00;1.00
5492;DHT22;2768;53.540;10.224;2023-05-20T11:51:37;17.00;1.00
5492;DHT22;2768;53.540;10.224;2023-05-20T11:57:30;17.00;1.00
5492;DHT22;2768;53.540;10.224;2023-05-20T12:03:25;17.00;1.00
5492;DHT22;2768;53.540;10.224;2023-05-20T12:09:19;17.00;1.00
5492;DHT22;2768;53.540;10.224;2023-05-20T12:15:13;17.00;1.00
5492;DHT22;2768;53.540;10.224;2023-05-20T12:21:08;17.20;1.00
5492;DHT22;2768;53.540;10.224;2023-05-20T12:27:01;17.10;1.00
5492;DHT22;2768;53.540;10.224;2023-05-20T12:32:54;17.30;1.00
5492;DHT22;2768;53.540;10.224;2023-05-20T12:38:49;17.30;1.00
5492;DHT22;2768;53.540;10.224;2023-05-20T12:44:42;17.40;1.00
5492;DHT22;2768;53.540;10.224;2023-05-20T12:50:36;17.40;1.00
5492;DHT22;2768;53.540;10.224;2023-05-20T12:56:30;17.40;1.00
5492;DHT22;2768;53.540;10.224;2023-05-20T13:02:23;17.20;1.00
5492;DHT22;2768;53.540;10.224;2023-05-20T13:08:17;17.20;1.00
5492;DHT22;2768;53.540;10.224;2023-05-20T13:14:11;17.30;1.00
5492;DHT22;2768;53.540;10.224;2023-05-20T13:20:08;17.40;1.00
5492;DHT22;2768;53.540;10.224;2023-05-20T13:26:02;17.60;1.00
5492;DHT22;2768;53.540;10.224;2023-05-20T13:31:57;17.60;1.00
5492;DHT22;2768;53.540;10.224;2023-05-20T13:37:52;17.50;1.00
5492;DHT22;2768;53.540;10.224;2023-05-20T13:43:46;17.60;1.00
5492;DHT22;2768;53.540;10.224;2023-05-20T13:49:41;17.50;1.00
5492;DHT22;2768;53.540;10.224;2023-05-20T13:55:34;17.60;1.00
5492;DHT22;2768;53.540;10.224;2023-05-20T14:01:29;17.80;1.00
5492;DHT22;2768;53.540;10.224;2023-05-20T14:07:25;17.80;1.00
5492;DHT22;2768;53.540;10.224;2023-05-20T14:13:19;18.00;1.00
5492;DHT22;2768;53.540;10.224;2023-05-20T14:19:12;17.90;1.00
5492;DHT22;2768;53.540;10.224;2023-05-20T14:25:07;18.00;1.00
5492;DHT22;2768;53.540;10.224;2023-05-20T14:31:02;18.00;1.00
5492;DHT22;2768;53.540;10.224;2023-05-20T14:36:59;17.90;1.00
5492;DHT22;2768;53.540;10.224;2023-05-20T14:42:59;18.00;1.00
5492;DHT22;2768;53.540;10.224;2023-05-20T14:48:52;18.10;1.00
5492;DHT22;2768;53.540;10.224;2023-05-20T14:54:46;18.00;1.00
5492;DHT22;2768;53.540;10.224;2023-05-20T15:00:41;17.80;1.00
5492;DHT22;2768;53.540;10.224;2023-05-20T15:06:34;17.80;1.00
5492;DHT22;2768;53.540;10.224;2023-05-20T15:12:28;17.80;1.00
5492;DHT22;2768;53.540;10.224;2023-05-20T15:18:22;17.60;1.00
5492;DHT22;2768;53.540;10.224;2023-05-20T15:24:16;17.60;1.00
5492;DHT22;2768;53.540;10.224;2023-05-20T15:30:11;17.50;1.00
5492;DHT22;2768;53.540;10.224;2023-05-20T15:36:06;17.30;1.00
5492;DHT22;2768;53.540;10.224;2023-05-20T15:41:59;17.30;1.00
5492;DHT22;2768;53.540;10.224;2023-05-20T15:47:53;17.30;1.00
5492;DHT22;2768;53.540;10.224;2023-05-20T15:53:48;17.30;1.00
5492;DHT22;2768;53.540;10.224;2023-05-20T15:59:41;17.40;1.00
5492;DHT22;2768;53.540;10.224;2023-05-20T16:05:35;17.40;1.00
5492;DHT22;2768;53.540;10.224;2023-05-20T16:11:31;17.40;1.00
5492;DHT22;2768;53.540;10.224;2023-05-20T16:17:24;17.40;1.00
5492;DHT22;2768;53.540;10.224;2023-05-20T16:23:17;17.40;1.00
5492;DHT22;2768;53.540;10.224;2023-05-20T16:29:12;17.30;1.00
5492;DHT22;2768;53.540;10.224;2023-05-20T16:35:08;17.40;1.00
5492;DHT22;2768;53.540;10.224;2023-05-20T16:41:01;17.40;1.00
5492;DHT22;2768;53.540;10.224;2023-05-20T16:46:55;17.30;1.00
5492;DHT22;2768;53.540;10.224;2023-05-20T16:52:49;17.30;1.00
5492;DHT22;2768;53.540;10.224;2023-05-20T16:58:42;17.30;1.00
5492;DHT22;2768;53.540;10.224;2023-05-20T17:04:37;17.30;1.00
5492;DHT22;2768;53.540;10.224;2023-05-20T17:10:31;17.10;1.00
5492;DHT22;2768;53.540;10.224;2023-05-20T17:16:24;17.00;1.00
5492;DHT22;2768;53.540;10.224;2023-05-20T17:22:19;17.00;1.00
5492;DHT22;2768;53.540;10.224;2023-05-20T17:28:12;17.00;1.00
5492;DHT22;2768;53.540;10.224;2023-05-20T17:34:05;16.90;1.00
5492;DHT22;2768;53.540;10.224;2023-05-20T17:40:00;16.90;1.00
5492;DHT22;2768;53.540;10.224;2023-05-20T17:45:57;16.90;1.00
5492;DHT22;2768;53.540;10.224;2023-05-20T17:51:50;16.80;3.20
5492;DHT22;2768;53.540;10.224;2023-05-20T17:57:45;16.80;3.10
5492;DHT22;2768;53.540;10.224;2023-05-20T18:03:38;16.90;4.30
5492;DHT22;2768;53.540;10.224;2023-05-20T18:09:32;16.90;4.00
5492;DHT22;2768;53.540;10.224;2023-05-20T18:15:28;16.80;4.30
5492;DHT22;2768;53.540;10.224;2023-05-20T18:21:22;16.90;8.40
5492;DHT22;2768;53.540;10.224;2023-05-20T18:27:16;16.90;5.60
5492;DHT22;2768;53.540;10.224;2023-05-20T18:33:10;16.80;1.70
5492;DHT22;2768;53.540;10.224;2023-05-20T18:39:04;16.80;1.00
5492;DHT22;2768;53.540;10.224;2023-05-20T18:44:58;16.80;1.00
5492;DHT22;2768;53.540;10.224;2023-05-20T18:50:53;16.70;1.00
5492;DHT22;2768;53.540;10.224;2023-05-20T18:56:47;16.70;3.40
5492;DHT22;2768;53.540;10.224;2023-05-20T19:02:40;16.60;4.40
5492;DHT22;2768;53.540;10.224;2023-05-20T19:08:35;16.50;8.70
5492;DHT22;2768;53.540;10.224;2023-05-20T19:14:29;16.30;11.30
5492;DHT22;2768;53.540;10.224;2023-05-20T19:20:22;16.30;11.30
5492;DHT22;2768;53.540;10.224;2023-05-20T19:26:17;16.30;17.00
5492;DHT22;2768;53.540;10.224;2023-05-20T19:32:10;16.10;27.90
5492;DHT22;2768;53.540;10.224;2023-05-20T19:38:03;16.10;41.00
5492;DHT22;2768;53.540;10.224;2023-05-20T19:44:00;16.00;47.50
5492;DHT22;2768;53.540;10.224;2023-05-20T19:49:53;16.00;59.40
5492;DHT22;2768;53.540;10.224;2023-05-20T19:55:47;15.70;67.20
5492;DHT22;2768;53.540;10.224;2023-05-20T20:01:41;15.60;84.40
5492;DHT22;2768;53.540;10.224;2023-05-20T20:07:35;15.50;96.90
5492;DHT22;2768;53.540;10.224;2023-05-20T20:13:30;15.50;99.40
5492;DHT22;2768;53.540;10.224;2023-05-20T20:19:24;15.60;94.10
5492;DHT22;2768;53.540;10.224;2023-05-20T20:25:19;15.70;86.70
5492;DHT22;2768;53.540;10.224;2023-05-20T20:31:14;15.30;85.40
5492;DHT22;2768;53.540;10.224;2023-05-20T20:37:09;15.30;93.00
5492;DHT22;2768;53.540;10.224;2023-05-20T20:43:06;15.10;93.90
5492;DHT22;2768;53.540;10.224;2023-05-20T20:49:00;15.20;94.90
5492;DHT22;2768;53.540;10.224;2023-05-20T20:54:55;15.00;93.60
5492;DHT22;2768;53.540;10.224;2023-05-20T21:00:49;15.00;95.50
5492;DHT22;2768;53.540;10.224;2023-05-20T21:06:44;14.90;99.90
5492;DHT22;2768;53.540;10.224;2023-05-20T21:12:39;14.90;99.90
5492;DHT22;2768;53.540;10.224;2023-05-20T21:18:33;15.10;96.60
5492;DHT22;2768;53.540;10.224;2023-05-20T21:24:26;14.90;96.20
5492;DHT22;2768;53.540;10.224;2023-05-20T21:30:21;15.00;99.90
5492;DHT22;2768;53.540;10.224;2023-05-20T21:36:15;15.00;96.30
5492;DHT22;2768;53.540;10.224;2023-05-20T21:42:09;14.80;95.10
5492;DHT22;2768;53.540;10.224;2023-05-20T21:48:04;14.70;99.90
5492;DHT22;2768;53.540;10.224;2023-05-20T21:53:58;14.70;98.20
5492;DHT22;2768;53.540;10.224;2023-05-20T21:59:51;14.90;99.50
5492;DHT22;2768;53.540;10.224;2023-05-20T22:05:46;14.80;96.10
5492;DHT22;2768;53.540;10.224;2023-05-20T22:11:40;14.80;95.40
5492;DHT22;2768;53.540;10.224;2023-05-20T22:17:37;14.80;90.50
5492;DHT22;2768;53.540;10.224;2023-05-20T22:23:32;14.80;81.00
5492;DHT22;2768;53.540;10.224;2023-05-20T22:29:25;14.90;74.60
5492;DHT22;2768;53.540;10.224;2023-05-20T22:35:19;14.70;76.50
5492;DHT22;2768;53.540;10.224;2023-05-20T22:41:14;14.90;72.70
5492;DHT22;2768;53.540;10.224;2023-05-20T22:47:08;14.90;61.80
5492;DHT22;2768;53.540;10.224;2023-05-20T22:53:01;14.80;62.30
5492;DHT22;2768;53.540;10.224;2023-05-20T22:58:56;14.80;50.00
5492;DHT22;2768;53.540;10.224;2023-05-20T23:04:50;14.90;47.70
5492;DHT22;2768;53.540;10.224;2023-05-20T23:10:43;14.60;49.80
5492;DHT22;2768;53.540;10.224;2023-05-20T23:16:38;14.60;47.20
5492;DHT22;2768;53.540;10.224;2023-05-20T23:22:33;14.70;42.60
5492;DHT22;2768;53.540;10.224;2023-05-20T23:28:26;14.70;36.20
5492;DHT22;2768;53.540;10.224;2023-05-20T23:34:21;14.80;29.60
5492;DHT22;2768;53.540;10.224;2023-05-20T23:40:15;14.80;26.60
5492;DHT22;2768;53.540;10.224;2023-05-20T23:46:08;14.60;23.50
5492;DHT22;2768;53.540;10.224;2023-05-20T23:52:03;14.50;24.90
5492;DHT22;2768;53.540;10.224;2023-05-20T23:57:57;14.60;27.70
